臺北終端管制區 - 桃園掃描雷達席

METAR RCTP 040300Z 05013KT 9999 FEW008 BKN015 BKN030 18/16 Q1020 NOSIG RMK A3014=

站台狀態:Online
最後更新:2020-04-04 11:00:02